<?xml version="1.0" encoding="utf-8"?>
<gpx xmlns:xsi="http://www.w3.org/2001/XMLSchema-instance" xmlns:xsd="http://www.w3.org/2001/XMLSchema" version="1.1" creator="Shapelink.com" xmlns="http://www.topografix.com/GPX/1/1" xmlns:gpxtpx="http://www.garmin.com/xmlschemas/TrackPointExtension/v1">
  <metadata>
    <name>Löpning 0.10 km, 2017-10-08</name>
    <desc></desc>
    <author><name>Bengt-Åke Forslund</name></author> 
    <time>2017-10-08T17:54:48Z</time>
  </metadata>
  <trk>
    <name>Löpning 0.10 km, 2017-10-08</name>
    <trkseg>
      <trkpt lat="62.635616494605" lon="17.91409759021">
        <ele>20.2</ele>
        <time>2017-10-08T17:54:48Z</time>
      </trkpt>
      <trkpt lat="62.635612806569" lon="17.913938501748">
        <ele>20.2</ele>
        <time>2017-10-08T17:54:49Z</time>
      </trkpt>
      <trkpt lat="62.635613896216" lon="17.913927018545">
        <ele>20.2</ele>
        <time>2017-10-08T17:54:50Z</time>
      </trkpt>
      <trkpt lat="62.635611130189" lon="17.913906147614">
        <ele>20.2</ele>
        <time>2017-10-08T17:54:51Z</time>
      </trkpt>
      <trkpt lat="62.635608280343" lon="17.913908578365">
        <ele>20.2</ele>
        <time>2017-10-08T17:54:52Z</time>
      </trkpt>
      <trkpt lat="62.635613896216" lon="17.913939591395">
        <ele>20.2</ele>
        <time>2017-10-08T17:54:53Z</time>
      </trkpt>
      <trkpt lat="62.635617165157" lon="17.913942692698">
        <ele>20.2</ele>
        <time>2017-10-08T17:54:54Z</time>
      </trkpt>
      <trkpt lat="62.635624876505" lon="17.913954008263">
        <ele>20.2</ele>
        <time>2017-10-08T17:54:55Z</time>
      </trkpt>
      <trkpt lat="62.63563786845" lon="17.914029529182">
        <ele>20.2</ele>
        <time>2017-10-08T17:54:56Z</time>
      </trkpt>
      <trkpt lat="62.635612974207" lon="17.913943279431">
        <ele>20.2</ele>
        <time>2017-10-08T17:54:57Z</time>
      </trkpt>
      <trkpt lat="62.635690758239" lon="17.91498942437">
        <ele>20.2</ele>
        <time>2017-10-08T17:54:58Z</time>
      </trkpt>
      <trkpt lat="62.635692853714" lon="17.914999147374">
        <ele>20.2</ele>
        <time>2017-10-08T17:54:59Z</time>
      </trkpt>
      <trkpt lat="62.635696374112" lon="17.914993782958">
        <ele>20</ele>
        <time>2017-10-08T17:55:00Z</time>
      </trkpt>
      <trkpt lat="62.635686734927" lon="17.915058826502">
        <ele>20</ele>
        <time>2017-10-08T17:55:02Z</time>
      </trkpt>
      <trkpt lat="62.635688327488" lon="17.915073075732">
        <ele>20</ele>
        <time>2017-10-08T17:55:03Z</time>
      </trkpt>
      <trkpt lat="62.635695619741" lon="17.915239456447">
        <ele>20</ele>
        <time>2017-10-08T17:55:04Z</time>
      </trkpt>
      <trkpt lat="62.635697799035" lon="17.915269715106">
        <ele>20</ele>
        <time>2017-10-08T17:55:05Z</time>
      </trkpt>
      <trkpt lat="62.635701654709" lon="17.915336351211">
        <ele>20</ele>
        <time>2017-10-08T17:55:06Z</time>
      </trkpt>
      <trkpt lat="62.635706851487" lon="17.915422014229">
        <ele>20</ele>
        <time>2017-10-08T17:55:07Z</time>
      </trkpt>
      <trkpt lat="62.635714395197" lon="17.915516310604">
        <ele>20</ele>
        <time>2017-10-08T17:55:08Z</time>
      </trkpt>
      <trkpt lat="62.635719340518" lon="17.915547072177">
        <ele>19.8</ele>
        <time>2017-10-08T17:55:09Z</time>
      </trkpt>
      <trkpt lat="62.635726129857" lon="17.915519914821">
        <ele>19.8</ele>
        <time>2017-10-08T17:55:11Z</time>
      </trkpt>
      <trkpt lat="62.635742977476" lon="17.91557699556">
        <ele>19.8</ele>
        <time>2017-10-08T17:55:12Z</time>
      </trkpt>
      <trkpt lat="62.635749766815" lon="17.915599123776">
        <ele>19.8</ele>
        <time>2017-10-08T17:55:13Z</time>
      </trkpt>
      <trkpt lat="62.635686902565" lon="17.915026388549">
        <ele>19.8</ele>
        <time>2017-10-08T17:55:15Z</time>
      </trkpt>
      <trkpt lat="62.635687908393" lon="17.915028651662">
        <ele>19.8</ele>
        <time>2017-10-08T17:55:16Z</time>
      </trkpt>
      <trkpt lat="62.635686399651" lon="17.915024879807">
        <ele>20</ele>
        <time>2017-10-08T17:55:17Z</time>
      </trkpt>
      <trkpt lat="62.635688830402" lon="17.915102244744">
        <ele>20</ele>
        <time>2017-10-08T17:55:18Z</time>
      </trkpt>
      <trkpt lat="62.635683885081" lon="17.915105848961">
        <ele>19.8</ele>
        <time>2017-10-08T17:55:19Z</time>
      </trkpt>
      <trkpt lat="62.635672904792" lon="17.915145662986">
        <ele>20</ele>
        <time>2017-10-08T17:55:20Z</time>
      </trkpt>
      <trkpt lat="62.63566049958" lon="17.91517382617">
        <ele>20</ele>
        <time>2017-10-08T17:55:21Z</time>
      </trkpt>
      <trkpt lat="62.635649770748" lon="17.915180950785">
        <ele>20</ele>
        <time>2017-10-08T17:55:22Z</time>
      </trkpt>
      <trkpt lat="62.635646920902" lon="17.915185477011">
        <ele>20</ele>
        <time>2017-10-08T17:55:23Z</time>
      </trkpt>
      <trkpt lat="62.635654045517" lon="17.915209449245">
        <ele>20.2</ele>
        <time>2017-10-08T17:55:24Z</time>
      </trkpt>
      <trkpt lat="62.635667037462" lon="17.915274241332">
        <ele>20.4</ele>
        <time>2017-10-08T17:55:25Z</time>
      </trkpt>
      <trkpt lat="62.635674245896" lon="17.915288742019">
        <ele>20.4</ele>
        <time>2017-10-08T17:55:26Z</time>
      </trkpt>
      <trkpt lat="62.635683885081" lon="17.915314139176">
        <ele>20.4</ele>
        <time>2017-10-08T17:55:27Z</time>
      </trkpt>
      <trkpt lat="62.635684136538" lon="17.91531045114">
        <ele>20.4</ele>
        <time>2017-10-08T17:55:28Z</time>
      </trkpt>
      <trkpt lat="62.635682543977" lon="17.91530961295">
        <ele>20.4</ele>
        <time>2017-10-08T17:55:29Z</time>
      </trkpt>
      <trkpt lat="62.635701989985" lon="17.915267535812">
        <ele>20.6</ele>
        <time>2017-10-08T17:56:06Z</time>
      </trkpt>
      <trkpt lat="62.635708779324" lon="17.915285053983">
        <ele>20.6</ele>
        <time>2017-10-08T17:56:07Z</time>
      </trkpt>
      <trkpt lat="62.635706935306" lon="17.915279019015">
        <ele>20.4</ele>
        <time>2017-10-08T17:56:08Z</time>
      </trkpt>
    </trkseg>
  </trk>
</gpx>